CheckWX is a tool to help pilots better visualize weather data.  It is not intended as a substitute for an official pre-flight weather briefing.

11:01:19 UTC

KTXK TAF
Texarkana Regional-Webb Field Airport
Texarkana, Arkansas, USA
KTXK 230543Z 2306/2406 VRB04KT 5SM -RA BR OVC004 FM230700 12011KT 3SM -RA BR OVC004 FM231500 10005KT 1/2SM -RA FG OVC004 FM231800 35004KT 1 1/2SM BR OVC004 FM232100 32008KT P6SM OVC015 FM240000 30005KT P6SM FEW250

Jan-23@
06:00 UTC

Jan-23 @ 06:00 UTC

Jan-23@
07:00 UTC

Jan-23 @ 07:00 UTC

KTXK 230543Z 2306/2406 VRB04KT 5SM -RA BR OVC004

Expired

Wind
  • Variable at 4 KTS
Conditions
Light Rain, Mist
Cloud Levels
  • Overcast at 400' AGL

Jan-23@
07:00 UTC

Jan-23 @ 07:00 UTC

Jan-23@
15:00 UTC

Jan-23 @ 15:00 UTC

FM230700 12011KT 3SM -RA BR OVC004

From

From Standard forecast or significant change

Wind
  • 120° at 11 KTS
Conditions
Light Rain, Mist
Cloud Levels
  • Overcast at 400' AGL

Jan-23@
15:00 UTC

Jan-23 @ 15:00 UTC

Jan-23@
18:00 UTC

Jan-23 @ 18:00 UTC

FM231500 10005KT 1/2SM -RA FG OVC004

From

From Standard forecast or significant change

Wind
  • 100° at 5 KTS
Conditions
Light Rain, Fog
Cloud Levels
  • Overcast at 400' AGL

Jan-23@
18:00 UTC

Jan-23 @ 18:00 UTC

Jan-23@
21:00 UTC

Jan-23 @ 21:00 UTC

FM231800 35004KT 1 1/2SM BR OVC004

From

From Standard forecast or significant change

Wind
  • 350° at 4 KTS
Conditions
Mist
Cloud Levels
  • Overcast at 400' AGL

Jan-23@
21:00 UTC

Jan-23 @ 21:00 UTC

Jan-24@
00:00 UTC

Jan-24 @ 00:00 UTC

FM232100 32008KT P6SM OVC015

From

From Standard forecast or significant change

Wind
  • 320° at 8 KTS
Cloud Levels
  • Overcast at 1,500' AGL

Jan-24@
00:00 UTC

Jan-24 @ 00:00 UTC

Jan-24@
06:00 UTC

Jan-24 @ 06:00 UTC

FM240000 30005KT P6SM FEW250

From

From Standard forecast or significant change

Wind
  • 300° at 5 KTS
Cloud Levels
  • Few at 25,000' AGL